Time;durP1;ratioP1;P1;durP2;ratioP2;P2;SDS_P1;SDS_P2;PMS_P1;PMS_P2;Temp;Humidity;BMP_temperature;BMP_pressure;BME280_temperature;BME280_humidity;BME280_pressure;Samples;Min_cycle;Max_cycle;Signal;HPM_P1;HPM_P2
2021/05/24 16:06:48;;;;;;;;;;;;;;;;;;5091973;27;19912;-80
2021/05/24 16:09:14;;;;;;;;;;;;;;;;;;5089725;28;19965;-81
2021/05/24 16:11:40;;;;;;;;;;;;;;;;;;5090458;28;19916;-80
2021/05/24 16:14:06;;;;;;;;;;;;;;;;;;5090215;28;19909;-80
2021/05/24 16:16:34;;;;;;;;;;;;;;;;;;5089962;28;19908;-81
2021/05/24 16:19:00;;;;;;;;;;;;;;;;;;5099560;28;19953;-81
2021/05/24 16:21:26;;;;;;;;;;;;;;;;;;5105824;28;19977;-82
2021/05/24 16:24:20;;;;;;;;;;;;;;;;;;5080787;28;20364;-80
2021/05/24 16:26:46;;;;;;;;;;;;;;;;;;5064201;28;20004;-80
2021/05/24 16:29:11;;;;;;;;;;;;;;;;;;5050666;28;56284;-80
2021/05/24 16:31:37;;;;;;;;;;;;;;;;;;5008701;28;19914;-81
2021/05/24 16:34:39;;;;;;;;;;;;;;;18.80;36.03;100429.81;4956079;27;1435889;-82
2021/05/24 16:37:04;;;;;;;;;;;;;;;18.61;38.18;100425.28;5079772;28;19920;-81
2021/05/24 16:39:32;;;;;;;;;;;;;;;18.48;38.03;100431.06;5120667;28;19955;-81
2021/05/24 16:41:58;;;;;;;;;;;;;;;18.32;37.87;100433.56;5093131;28;19959;-81
2021/05/24 16:44:23;;;;;;;;;;;;;;;18.21;37.58;100429.97;5128231;28;20397;-79
2021/05/24 16:46:49;;;;;;;;;;;;;;;18.07;39.27;100435.88;5111023;28;19920;-81
2021/05/24 16:49:14;;;;;;;;;;;;;;;17.76;40.18;100454.22;5102757;28;19916;-82
2021/05/24 16:51:40;;;;;;;;;;;;;;;17.39;43.07;100476.63;5074009;28;20762;-82
2021/05/24 16:54:05;;;;;;;;;;;;;;;16.75;47.51;100484.06;5110332;28;20421;-81
2021/05/24 16:56:30;;;;;;;;;;;;;;;16.33;50.88;100494.13;5093430;28;19959;-81
2021/05/24 16:58:56;;;;;;;;;;;;;;;15.83;53.54;100510.16;5086696;28;19927;-82
2021/05/24 17:01:21;;;;;;;;;;;;;;;15.61;55.20;100514.63;5102777;28;19920;-80
2021/05/24 17:03:46;;;;;;;;;;;;;;;15.30;55.95;100524.44;5110736;28;19916;-82
2021/05/24 17:06:18;;;;;;;;;;;;;;;15.11;56.63;100531.34;5110544;28;19924;-82
2021/05/24 17:08:43;;;;;;;;;;;;;;;14.89;57.58;100529.50;5110849;28;20393;-81
2021/05/24 17:11:08;;;;;;;;;;;;;;;14.79;58.14;100536.63;5106277;28;19916;-81
2021/05/24 17:13:33;;;;;;;;;;;;;;;14.78;59.32;100526.78;5073108;28;19920;-81
2021/05/24 17:15:58;;;;;;;;;;;;;;;14.63;59.93;100536.13;5090077;28;19916;-80
2021/05/24 17:18:24;;;;;;;;;;;;;;;14.76;58.76;100546.81;5083836;28;19916;-87
2021/05/24 17:20:49;;;;;;;;;;;;;;;14.67;60.03;100543.88;5093868;28;19927;-84
2021/05/24 17:23:14;;;;;;;;;;;;;;;14.75;58.70;100551.38;5093448;28;19922;-83
2021/05/24 17:25:40;;;;;;;;;;;;;;;14.67;59.47;100562.81;5094014;28;20011;-84
2021/05/24 17:28:07;;;;;;;;;;;;;;;14.80;58.76;100573.50;5110448;28;19977;-84
2021/05/24 17:30:32;;;;;;;;;;;;;;;14.72;58.96;100574.09;5111128;28;19962;-84
2021/05/24 17:32:58;;;;;;;;;;;;;;;14.53;60.17;100579.22;5110301;28;19959;-84
2021/05/24 17:35:24;;;;;;;;;;;;;;;14.47;61.81;100585.09;5110266;28;19916;-85
2021/05/24 17:37:49;;;;;;;;;;;;;;;14.46;61.11;100594.19;5110112;28;19916;-80
2021/05/24 17:40:15;;;;;;;;;;;;;;;14.37;62.31;100594.88;5106935;28;19916;-81
2021/05/24 17:42:40;;;;;;;;;;;;;;;14.40;61.77;100605.47;5089011;28;20015;-80
2021/05/24 17:45:10;;;;;;;;;;;;;;;14.19;62.86;100606.09;5080937;28;19986;-81
2021/05/24 17:47:35;;;;;;;;;;;;;;;14.13;63.97;100594.91;5075278;28;19916;-80
2021/05/24 17:50:04;;;;;;;;;;;;;;;14.04;64.28;100589.22;5095860;28;19916;-81
2021/05/24 17:52:48;;;;;;;;;;;;;;;13.99;64.35;100577.88;5096121;28;19969;-81
2021/05/24 17:55:14;;;;;;;;;;;;;;;13.94;63.39;100573.81;5080212;28;19942;-81
2021/05/24 17:57:39;;;;;;;;;;;;;;;13.92;64.12;100582.03;5075334;28;20010;-81
2021/05/24 18:00:05;;;;;;;;;;;;;;;13.80;64.86;100602.72;5085609;28;19920;-82
2021/05/24 18:02:30;;;;;;;;;;;;;;;13.83;64.74;100604.31;5095678;28;19916;-82
2021/05/24 18:04:55;;;;;;;;;;;;;;;13.79;65.60;100605.56;5095758;28;19916;-81
2021/05/24 18:07:20;;;;;;;;;;;;;;;13.74;66.08;100599.59;5058978;28;19920;-81
2021/05/24 18:09:46;;;;;;;;;;;;;;;13.72;64.99;100593.47;5089620;28;19927;-81
2021/05/24 18:12:11;;;;;;;;;;;;;;;13.66;65.90;100595.63;5077971;28;19927;-81
2021/05/24 18:14:36;;;;;;;;;;;;;;;13.64;66.72;100592.19;5091929;28;19924;-80
2021/05/24 18:17:01;;;;;;;;;;;;;;;13.65;65.94;100595.78;5084677;28;19920;-81
2021/05/24 18:19:27;;;;;;;;;;;;;;;13.54;66.85;100595.69;5075008;28;19924;-80
2021/05/24 18:21:52;;;;;;;;;;;;;;;13.53;66.93;100597.53;5075013;28;19924;-80
2021/05/24 18:24:17;;;;;;;;;;;;;;;13.49;67.00;100601.41;5058290;28;19916;-81
2021/05/24 18:26:42;;;;;;;;;;;;;;;13.54;66.11;100591.16;5063262;28;19920;-81
2021/05/24 18:29:08;;;;;;;;;;;;;;;13.55;67.52;100600.94;5058236;28;19916;-81
2021/05/24 18:31:35;;;;;;;;;;;;;;;13.50;65.78;100595.03;5075206;28;19916;-81
2021/05/24 18:34:01;;;;;;;;;;;;;;;13.42;66.62;100595.59;5062715;28;19920;-81
2021/05/24 18:36:26;;;;;;;;;;;;;;;13.55;67.18;100606.34;5090403;28;19920;-81
2021/05/24 18:38:51;;;;;;;;;;;;;;;13.47;67.38;100604.22;5074702;28;19974;-81
2021/05/24 18:41:17;;;;;;;;;;;;;;;13.57;66.22;100614.34;5087214;28;19920;-81
2021/05/24 18:43:42;;;;;;;;;;;;;;;13.39;67.46;100594.94;5057837;28;19967;-81
2021/05/24 18:46:08;;;;;;;;;;;;;;;13.29;67.81;100602.84;5058228;28;20352;-81
2021/05/24 18:48:33;;;;;;;;;;;;;;;13.26;67.95;100600.34;5083594;28;19962;-81
2021/05/24 18:50:59;;;;;;;;;;;;;;;13.19;68.07;100599.94;5077708;28;20010;-81
2021/05/24 18:53:25;;;;;;;;;;;;;;;13.19;67.91;100593.69;5094523;28;19920;-81
2021/05/24 18:55:51;;;;;;;;;;;;;;;13.02;68.09;100602.97;5080690;28;20008;-80
2021/05/24 18:58:18;;;;;;;;;;;;;;;12.99;68.24;100605.88;5090438;28;19920;-80
2021/05/24 19:00:43;;;;;;;;;;;;;;;12.92;68.65;100602.75;5091145;28;20367;-81
2021/05/24 19:03:24;;;;;;;;;;;;;;;12.92;68.94;100610.84;5065853;28;19931;-80
2021/05/24 19:06:10;;;;;;;;;;;;;;;12.88;69.60;100605.75;5080007;28;19920;-81
2021/05/24 19:08:37;;;;;;;;;;;;;;;12.84;69.86;100606.00;5096970;28;19916;-81
2021/05/24 19:11:03;;;;;;;;;;;;;;;12.81;70.48;100605.31;5094589;28;20271;-81
2021/05/24 19:13:28;;;;;;;;;;;;;;;12.77;69.89;100593.91;5094205;28;19916;-80
2021/05/24 19:15:53;;;;;;;;;;;;;;;12.77;69.78;100599.31;5077280;28;20085;-80
2021/05/24 19:18:19;;;;;;;;;;;;;;;12.77;70.28;100587.66;5094069;28;19923;-80
2021/05/24 19:20:45;;;;;;;;;;;;;;;12.75;70.09;100595.84;5094291;28;20305;-81
2021/05/24 19:23:13;;;;;;;;;;;;;;;12.75;69.76;100601.25;5093930;28;19923;-80
2021/05/24 19:25:43;;;;;;;;;;;;;;;12.69;70.61;100604.34;5066583;28;19917;-81
2021/05/24 19:28:08;;;;;;;;;;;;;;;12.64;70.49;100606.50;5074156;28;20344;-80
2021/05/24 19:30:33;;;;;;;;;;;;;;;12.64;70.74;100617.28;5073860;28;19951;-81
2021/05/24 19:32:58;;;;;;;;;;;;;;;12.67;70.33;100619.81;5073105;28;19959;-80
2021/05/24 19:35:24;;;;;;;;;;;;;;;12.63;69.93;100619.13;5073775;28;19962;-81
2021/05/24 19:37:49;;;;;;;;;;;;;;;12.61;70.93;100621.06;5073685;28;19939;-80
2021/05/24 19:40:15;;;;;;;;;;;;;;;12.59;71.02;100614.91;5073583;28;20015;-81
2021/05/24 19:42:40;;;;;;;;;;;;;;;12.57;71.10;100616.00;5072940;28;19916;-81
2021/05/24 19:45:06;;;;;;;;;;;;;;;12.58;71.06;100617.75;5073389;28;20386;-80
2021/05/24 20:23:31;;;;;;;;;;;;;;;12.33;72.81;100634.72;5080399;28;19971;-81
2021/05/24 20:25:22;;;;;;;;;;;;;;;12.19;74.72;100646.41;5093556;28;19927;-81
2021/05/24 20:27:47;;;;;;;;;;;;;;;12.16;74.77;100635.81;5092973;28;20294;-81
2021/05/24 20:30:13;;;;;;;;;;;;;;;12.12;75.23;100634.31;5092910;28;20276;-81
2021/05/24 20:32:38;;;;;;;;;;;;;;;12.13;75.43;100638.72;5075611;28;20282;-81
2021/05/24 20:35:03;;;;;;;;;;;;;;;12.13;76.16;100620.72;5086368;28;19923;-81
2021/05/24 20:37:29;;;;;;;;;;;;;;;12.15;76.33;100620.63;5087073;28;19928;-82
2021/05/24 20:39:54;;;;;;;;;;;;;;;12.12;76.58;100631.63;5093227;28;19961;-81
2021/05/24 20:42:20;;;;;;;;;;;;;;;12.08;77.24;100627.41;5093354;28;19916;-81
2021/05/24 20:44:45;;;;;;;;;;;;;;;12.05;78.19;100627.63;5093141;28;19920;-82
2021/05/24 20:47:10;;;;;;;;;;;;;;;12.00;78.31;100615.31;5093112;28;20286;-82
2021/05/24 20:49:35;;;;;;;;;;;;;;;12.02;78.56;100620.56;5092997;28;19920;-82
2021/05/24 20:52:01;;;;;;;;;;;;;;;11.97;79.21;100623.59;5084542;28;19916;-81
2021/05/24 20:54:26;;;;;;;;;;;;;;;11.94;79.03;100621.09;5072454;28;19916;-83
2021/05/24 20:57:00;;;;;;;;;;;;;;;11.90;79.54;100626.78;5072754;28;19921;-81
2021/05/24 20:59:26;;;;;;;;;;;;;;;11.92;78.85;100631.09;5073859;28;19916;-81
2021/05/24 21:01:51;;;;;;;;;;;;;;;11.93;79.46;100626.59;5072426;28;19943;-81
2021/05/24 21:04:16;;;;;;;;;;;;;;;11.91;80.61;100631.22;5085665;28;19971;-81
2021/05/24 21:06:42;;;;;;;;;;;;;;;11.86;80.76;100631.50;5076028;28;19938;-79
2021/05/24 21:09:07;;;;;;;;;;;;;;;11.86;81.27;100639.56;5075411;28;20350;-79
2021/05/24 21:11:32;;;;;;;;;;;;;;;11.87;80.83;100640.44;5090189;28;19923;-80
2021/05/24 21:13:57;;;;;;;;;;;;;;;11.83;81.05;100639.75;5092093;28;19916;-79
2021/05/24 21:16:23;;;;;;;;;;;;;;;11.82;81.53;100643.41;5092548;28;20016;-79
2021/05/24 21:18:48;;;;;;;;;;;;;;;11.82;81.72;100643.41;5092153;28;20355;-78
2021/05/24 21:21:13;;;;;;;;;;;;;;;11.85;81.98;100642.34;5078784;28;19923;-79
2021/05/24 21:23:38;;;;;;;;;;;;;;;11.81;82.53;100636.28;5095989;28;19965;-79
2021/05/24 21:26:04;;;;;;;;;;;;;;;11.77;82.38;100640.16;5089962;28;19912;-81
2021/05/24 21:28:29;;;;;;;;;;;;;;;11.78;82.52;100641.88;5059278;28;19920;-80
2021/05/24 21:30:54;;;;;;;;;;;;;;;11.73;80.04;100644.00;5061754;28;20271;-83
2021/05/24 21:33:23;;;;;;;;;;;;;;;11.75;80.32;100637.56;5095629;28;19920;-80
2021/05/24 21:35:49;;;;;;;;;;;;;;;11.69;80.91;100635.25;5090693;28;20010;-81
2021/05/24 21:38:14;;;;;;;;;;;;;;;11.66;81.38;100635.47;5092929;28;19959;-82
2021/05/24 21:40:42;;;;;;;;;;;;;;;11.66;81.61;100635.47;5095433;28;20363;-79
2021/05/24 21:43:08;;;;;;;;;;;;;;;11.69;82.63;100629.03;5096149;28;20420;-86
2021/05/24 21:45:34;;;;;;;;;;;;;;;11.57;80.15;100618.09;5079024;28;19916;-80
2021/05/24 21:47:59;;;;;;;;;;;;;;;11.52;81.30;100606.75;5078688;28;20260;-83
2021/05/24 21:50:24;;;;;;;;;;;;;;;11.49;82.11;100609.66;5095350;28;20257;-79
2021/05/24 21:52:49;;;;;;;;;;;;;;;11.50;82.47;100613.22;5095419;28;19916;-83
2021/05/24 21:55:16;;;;;;;;;;;;;;;11.40;82.62;100610.25;5095476;28;20028;-79
2021/05/24 21:57:42;;;;;;;;;;;;;;;11.33;83.40;100606.22;5096112;28;19920;-85
2021/05/24 22:00:09;;;;;;;;;;;;;;;11.31;83.99;100594.69;5095808;28;19916;-79
2021/05/24 22:02:34;;;;;;;;;;;;;;;11.32;83.91;100585.66;5095989;28;19923;-80
2021/05/24 22:05:00;;;;;;;;;;;;;;;11.24;84.22;100598.75;5095784;28;19916;-77
2021/05/24 22:07:25;;;;;;;;;;;;;;;11.24;84.43;100596.06;5095753;28;19923;-78
2021/05/24 22:09:50;;;;;;;;;;;;;;;11.19;85.37;100590.09;5095570;28;19916;-77
2021/05/24 22:12:16;;;;;;;;;;;;;;;11.18;85.52;100588.38;5095549;28;19916;-77
2021/05/24 22:14:41;;;;;;;;;;;;;;;11.18;85.09;100577.59;5085133;28;20019;-77
2021/05/24 22:17:06;;;;;;;;;;;;;;;11.16;84.99;100578.59;5083288;28;20426;-79
2021/05/24 22:19:33;;;;;;;;;;;;;;;11.13;85.02;100576.06;5081028;28;20019;-77
2021/05/24 22:21:58;;;;;;;;;;;;;;;11.13;86.03;100575.22;5078599;28;19923;-77
2021/05/24 22:24:23;;;;;;;;;;;;;;;11.13;85.18;100575.22;5077939;28;19917;-77
2021/05/24 22:26:49;;;;;;;;;;;;;;;11.11;85.88;100575.28;5094936;28;20393;-79
2021/05/24 22:29:14;;;;;;;;;;;;;;;11.10;86.36;100581.66;5078077;28;20416;-77
2021/05/24 22:31:39;;;;;;;;;;;;;;;11.14;85.31;100577.81;5094914;28;20367;-77
2021/05/24 22:34:05;;;;;;;;;;;;;;;11.15;86.33;100571.47;5077887;28;20289;-77
2021/05/24 22:36:30;;;;;;;;;;;;;;;11.13;86.17;100572.53;5094902;28;19995;-78
2021/05/24 22:38:55;;;;;;;;;;;;;;;11.12;86.89;100562.75;5093368;28;19957;-78
2021/05/24 22:41:20;;;;;;;;;;;;;;;11.12;86.76;100554.66;5094532;28;19917;-77
2021/05/24 22:43:46;;;;;;;;;;;;;;;11.12;86.86;100554.66;5094836;28;20373;-77
2021/05/24 22:46:11;;;;;;;;;;;;;;;11.10;87.30;100552.06;5091354;28;19924;-78
2021/05/24 22:48:36;;;;;;;;;;;;;;;11.10;87.57;100546.69;5057893;28;19916;-77
2021/05/24 22:51:01;;;;;;;;;;;;;;;11.12;86.86;100552.84;5074623;28;19920;-78
2021/05/24 22:53:26;;;;;;;;;;;;;;;11.08;86.16;100551.31;5057311;28;19916;-78
2021/05/24 22:55:52;;;;;;;;;;;;;;;11.04;87.75;100547.06;5062219;28;19924;-78
2021/05/24 22:58:17;;;;;;;;;;;;;;;11.07;87.51;100556.75;5094862;28;19923;-79
2021/05/24 23:00:42;;;;;;;;;;;;;;;11.08;86.12;100548.63;5094573;28;19923;-77
2021/05/24 23:03:07;;;;;;;;;;;;;;;11.07;85.98;100549.59;5094563;28;19915;-78
2021/05/24 23:05:34;;;;;;;;;;;;;;;11.07;86.87;100549.59;5084760;28;19917;-77
2021/05/24 23:08:01;;;;;;;;;;;;;;;10.99;86.22;100540.28;5081929;28;19920;-79
2021/05/24 23:10:26;;;;;;;;;;;;;;;10.94;86.26;100544.09;5094288;28;19916;-77
2021/05/24 23:12:52;;;;;;;;;;;;;;;10.97;86.26;100548.41;5094130;28;19927;-77
2021/05/24 23:15:18;;;;;;;;;;;;;;;10.94;86.77;100545.94;5094176;28;19962;-77
2021/05/24 23:17:44;;;;;;;;;;;;;;;10.90;85.73;100539.88;5094172;28;19916;-77
2021/05/24 23:20:10;;;;;;;;;;;;;;;10.90;85.70;100539.88;5079479;28;20375;-77
2021/05/24 23:22:35;;;;;;;;;;;;;;;10.85;86.66;100531.25;5073722;28;19980;-77
2021/05/24 23:25:00;;;;;;;;;;;;;;;10.83;85.44;100529.63;5074191;28;19947;-77
2021/05/24 23:27:26;;;;;;;;;;;;;;;10.85;85.92;100527.69;5056802;28;19955;-77
2021/05/24 23:29:51;;;;;;;;;;;;;;;10.83;83.87;100526.94;5075003;28;19962;-77
2021/05/24 23:32:16;;;;;;;;;;;;;;;10.79;83.85;100523.59;5073711;28;19916;-78
2021/05/24 23:34:41;;;;;;;;;;;;;;;10.74;85.33;100523.88;5084187;28;19924;-78
2021/05/24 23:37:07;;;;;;;;;;;;;;;10.80;84.99;100527.13;5093737;28;20007;-77
2021/05/24 23:39:32;;;;;;;;;;;;;;;10.73;85.88;100522.13;5090641;28;20014;-79
2021/05/24 23:41:57;;;;;;;;;;;;;;;10.72;84.89;100523.09;5069131;28;20035;-79
2021/05/24 23:44:22;;;;;;;;;;;;;;;10.67;84.65;100518.97;5093461;28;19920;-78
2021/05/24 23:46:47;;;;;;;;;;;;;;;10.68;84.55;100518.03;5093578;28;19916;-79
2021/05/24 23:49:13;;;;;;;;;;;;;;;10.65;84.57;100520.88;5079023;28;19916;-79
2021/05/24 23:51:38;;;;;;;;;;;;;;;10.69;85.84;100515.22;5076413;28;19923;-79
2021/05/24 23:54:03;;;;;;;;;;;;;;;10.63;85.13;100514.72;5093547;28;19954;-79
2021/05/24 23:56:28;;;;;;;;;;;;;;;10.58;86.09;100509.66;5093263;28;19920;-79
2021/05/24 23:58:54;;;;;;;;;;;;;;;10.64;84.81;100513.78;5093330;28;19916;-77
